Time;durP1;ratioP1;P1;durP2;ratioP2;P2;SDS_P1;SDS_P2;PMS_P1;PMS_P2;Temp;Humidity;BMP_temperature;BMP_pressure;BME280_temperature;BME280_humidity;BME280_pressure;Samples;Min_cycle;Max_cycle;Signal;HPM_P1;HPM_P2
2023/08/23 00:00:24;;;;;;;;;0.50;0.50;;;;;19.25;71.20;102040.38;5055696;28;8892;-69
2023/08/23 00:02:51;;;;;;;;;1.75;1.75;;;;;19.23;71.14;102047.13;5068309;28;8835;-69
2023/08/23 00:05:17;;;;;;;;;2.00;2.00;;;;;19.20;71.18;102036.63;5041907;28;8855;-69
2023/08/23 00:07:44;;;;;;;;;2.00;2.00;;;;;19.18;71.22;102034.13;5067281;28;8859;-69
2023/08/23 00:10:11;;;;;;;;;2.25;1.25;;;;;19.16;71.48;102044.47;5058594;28;8843;-69
2023/08/23 00:12:37;;;;;;;;;1.25;1.25;;;;;19.17;71.49;102048.84;5069268;28;8832;-69
2023/08/23 00:15:04;;;;;;;;;2.00;2.00;;;;;19.15;71.46;102040.03;5052619;28;8826;-69
2023/08/23 00:17:30;;;;;;;;;1.75;1.75;;;;;19.14;71.52;102046.56;5066350;28;8823;-69
2023/08/23 00:19:57;;;;;;;;;1.50;1.50;;;;;19.14;71.55;102040.25;5063451;28;8957;-69
2023/08/23 00:22:24;;;;;;;;;1.75;1.75;;;;;19.12;71.55;102048.69;5065541;28;9565;-69
2023/08/23 00:24:50;;;;;;;;;2.00;2.00;;;;;19.11;71.52;102038.81;5057214;28;8820;-69
2023/08/23 00:27:17;;;;;;;;;1.75;1.75;;;;;19.08;71.45;102030.22;5068474;28;8803;-69
2023/08/23 00:29:43;;;;;;;;;1.00;1.00;;;;;19.03;71.56;102023.53;5067437;28;8901;-69
2023/08/23 00:32:10;;;;;;;;;2.75;1.50;;;;;19.03;71.71;102028.16;5069156;28;8854;-69
2023/08/23 00:34:39;;;;;;;;;2.75;2.50;;;;;19.01;71.69;102022.94;5067883;28;8839;-69
2023/08/23 00:37:06;;;;;;;;;2.00;2.00;;;;;19.00;71.94;102020.44;5050984;28;8907;-69
2023/08/23 00:39:33;;;;;;;;;3.00;3.00;;;;;18.98;71.79;102015.19;5054197;28;8976;-68
2023/08/23 00:42:00;;;;;;;;;4.50;2.00;;;;;18.96;71.90;102025.50;5062255;28;8965;-69
2023/08/23 00:44:26;;;;;;;;;3.00;2.75;;;;;18.95;71.93;102018.34;5068928;28;8846;-68
2023/08/23 00:46:54;;;;;;;;;2.50;1.25;;;;;18.92;71.94;102010.63;5070123;28;8826;-69
2023/08/23 00:49:21;;;;;;;;;2.00;2.00;;;;;18.92;72.07;102007.91;5065711;28;8849;-69
2023/08/23 00:51:50;;;;;;;;;2.50;2.00;;;;;18.91;72.24;102005.38;5058042;28;8878;-69
2023/08/23 00:54:17;;;;;;;;;3.00;3.00;;;;;18.89;72.38;101997.41;5063423;28;8826;-68
2023/08/23 00:56:43;;;;;;;;;3.00;2.75;;;;;18.88;72.32;102001.22;5064606;28;8839;-69
2023/08/23 00:59:10;;;;;;;;;3.25;3.25;;;;;18.87;72.34;101988.59;5064777;28;8831;-68
2023/08/23 01:01:37;;;;;;;;;3.00;2.00;;;;;18.87;72.48;101983.16;5066042;28;8908;-69
2023/08/23 01:04:04;;;;;;;;;2.50;2.50;;;;;18.85;72.43;101981.72;5056708;28;8896;-69
2023/08/23 01:06:49;;;;;;;;;3.50;2.75;;;;;18.86;72.62;101983.38;5067634;28;9669;-69
2023/08/23 01:09:39;;;;;;;;;2.25;2.00;;;;;18.88;72.34;101994.91;5058616;28;8837;-69
2023/08/23 01:12:16;;;;;;;;;2.00;2.00;;;;;18.87;72.32;101994.06;5060536;28;8823;-69
2023/08/23 01:14:50;;;;;;;;;2.75;2.75;;;;;18.87;72.37;101998.69;5048345;28;8817;-68
2023/08/23 01:17:19;;;;;;;;;2.00;2.00;;;;;18.84;72.61;101985.47;5049713;28;8834;-69
2023/08/23 01:19:48;;;;;;;;;4.50;3.25;;;;;18.84;72.57;101994.53;5051511;28;8863;-67
2023/08/23 01:22:19;;;;;;;;;4.00;3.25;;;;;18.84;72.78;101993.66;5068339;28;8841;-69
2023/08/23 01:24:50;;;;;;;;;3.75;2.75;;;;;18.82;72.71;101995.78;5057357;28;8904;-70
2023/08/23 01:27:18;;;;;;;;;4.00;3.00;;;;;18.79;72.60;101997.06;5068117;28;8831;-69
2023/08/23 01:29:45;;;;;;;;;3.50;3.50;;;;;18.77;72.55;101994.56;5041012;28;8878;-68
2023/08/23 01:32:31;;;;;;;;;3.00;3.00;;;;;18.73;72.67;101992.50;5060959;28;8853;-70
2023/08/23 01:35:12;;;;;;;;;3.50;2.25;;;;;18.73;72.86;101993.34;5062638;28;8838;-69
2023/08/23 01:37:40;;;;;;;;;4.00;3.25;;;;;18.71;73.06;101994.59;5068287;28;8827;-69
2023/08/23 01:40:11;;;;;;;;;5.50;3.50;;;;;18.70;73.06;101996.50;5060214;28;8845;-69
2023/08/23 01:42:39;;;;;;;;;5.50;4.00;;;;;18.68;72.98;101987.69;5065820;28;8838;-69
2023/08/23 01:45:07;;;;;;;;;3.25;3.25;;;;;18.66;72.96;101981.59;5064597;28;9639;-69
2023/08/23 01:47:33;;;;;;;;;3.50;3.00;;;;;18.66;73.23;101994.41;5064581;28;8965;-69
2023/08/23 01:50:01;;;;;;;;;3.50;2.75;;;;;18.64;73.16;101981.00;5071435;28;8835;-69
2023/08/23 01:52:28;;;;;;;;;4.75;4.75;;;;;18.62;73.11;101974.06;5054956;28;8845;-68
2023/08/23 01:54:54;;;;;;;;;3.75;3.75;;;;;18.60;73.06;101981.66;5066182;28;8874;-68
2023/08/23 01:57:21;;;;;;;;;6.75;3.25;;;;;18.58;73.38;101983.75;5068529;28;8830;-69
2023/08/23 01:59:49;;;;;;;;;5.75;3.00;;;;;18.57;73.47;101982.91;5088160;28;8857;-68
2023/08/23 02:02:16;;;;;;;;;6.50;4.25;;;;;18.56;73.48;101981.25;5062293;28;8869;-70
2023/08/23 02:04:43;;;;;;;;;4.00;3.25;;;;;18.55;73.47;101974.09;5071116;28;8847;-70
2023/08/23 02:07:10;;;;;;;;;5.50;5.50;;;;;18.54;73.48;101983.34;5066094;28;8814;-70
2023/08/23 02:09:36;;;;;;;;;7.00;7.00;;;;;18.53;73.50;101968.06;5071062;28;8850;-70
2023/08/23 02:12:03;;;;;;;;;5.25;5.25;;;;;18.52;73.36;101969.13;5071164;28;8950;-68
2023/08/23 02:14:29;;;;;;;;;7.00;4.50;;;;;18.51;73.52;101975.59;5053889;28;8892;-68
2023/08/23 02:16:56;;;;;;;;;5.00;5.00;;;;;18.49;73.51;101977.72;5052446;28;9595;-68
2023/08/23 02:19:22;;;;;;;;;4.75;4.75;;;;;18.48;73.53;101973.34;5053587;28;8823;-68
2023/08/23 02:21:51;;;;;;;;;6.75;5.50;;;;;18.46;73.42;101972.72;5069311;28;8826;-68
2023/08/23 02:24:17;;;;;;;;;6.50;6.50;;;;;18.44;73.53;101970.22;5067458;28;8847;-69
2023/08/23 02:26:44;;;;;;;;;5.75;5.50;;;;;18.44;73.56;101966.66;5052266;28;8924;-69
2023/08/23 02:29:12;;;;;;;;;6.00;5.75;;;;;18.43;73.54;101962.22;5069254;28;8827;-69
2023/08/23 02:31:39;;;;;;;;;6.75;5.75;;;;;18.42;73.60;101969.56;5069539;28;8842;-69
2023/08/23 02:34:05;;;;;;;;;7.75;7.00;;;;;18.41;73.67;101961.63;5070924;28;8847;-69
2023/08/23 02:36:32;;;;;;;;;9.00;9.00;;;;;18.42;73.74;101963.28;5085534;28;8832;-69
2023/08/23 02:39:00;;;;;;;;;8.00;7.50;;;;;18.41;73.72;101969.81;5050433;28;8823;-70
2023/08/23 02:41:27;;;;;;;;;7.00;7.00;;;;;18.41;73.77;101972.53;5069976;28;8835;-69
2023/08/23 02:43:53;;;;;;;;;8.00;7.50;;;;;18.40;73.82;101973.59;5044105;28;8830;-69
2023/08/23 02:46:20;;;;;;;;;7.75;6.50;;;;;18.40;73.87;101970.88;5050572;28;8829;-69
2023/08/23 02:48:46;;;;;;;;;8.00;7.25;;;;;18.38;73.75;101956.59;5061046;28;8889;-70
2023/08/23 02:51:13;;;;;;;;;7.75;7.50;;;;;18.38;73.93;101962.06;5066742;28;8923;-69
2023/08/23 02:53:39;;;;;;;;;10.25;7.25;;;;;18.40;73.95;101952.63;5064940;28;8854;-68
2023/08/23 02:56:06;;;;;;;;;9.00;8.00;;;;;18.41;73.84;101948.00;5066496;28;8824;-69
2023/08/23 02:58:32;;;;;;;;;9.00;8.25;;;;;18.40;73.87;101951.78;5064457;28;8845;-69
2023/08/23 03:01:00;;;;;;;;;6.25;6.25;;;;;18.40;73.80;101949.91;5065290;28;9605;-69
2023/08/23 03:03:29;;;;;;;;;6.75;6.75;;;;;18.40;73.94;101955.34;5063206;28;8811;-68
2023/08/23 03:05:57;;;;;;;;;9.50;8.25;;;;;18.38;74.00;101952.00;5071315;28;8838;-69
2023/08/23 03:08:24;;;;;;;;;10.75;9.50;;;;;18.38;74.00;101951.16;5069848;28;8819;-69
2023/08/23 03:11:00;;;;;;;;;7.00;6.75;;;;;18.36;73.85;101954.13;5071400;28;9546;-69
2023/08/23 03:13:26;;;;;;;;;8.50;5.50;;;;;18.36;73.92;101942.38;5062430;28;8843;-69
2023/08/23 03:15:54;;;;;;;;;10.00;8.00;;;;;18.36;74.14;101945.09;5069939;28;9600;-70
2023/08/23 03:18:21;;;;;;;;;7.00;7.00;;;;;18.36;73.95;101934.19;5065121;28;8827;-70
2023/08/23 03:20:48;;;;;;;;;9.25;7.75;;;;;18.36;74.27;101937.75;5086637;28;8897;-69
2023/08/23 03:23:17;;;;;;;;;6.25;6.25;;;;;18.37;74.20;101954.94;5034251;28;8842;-69
2023/08/23 03:25:46;;;;;;;;;7.00;7.00;;;;;18.38;74.27;101952.00;5060948;28;8827;-69
2023/08/23 03:28:13;;;;;;;;;6.75;6.00;;;;;18.40;74.37;101957.25;5067309;28;8893;-69
2023/08/23 03:30:41;;;;;;;;;7.00;4.50;;;;;18.41;74.45;101956.19;5069475;28;8874;-69
2023/08/23 03:33:09;;;;;;;;;6.75;6.00;;;;;18.42;74.59;101944.22;5064378;28;8941;-69
2023/08/23 03:35:36;;;;;;;;;9.00;6.75;;;;;18.44;74.47;101953.03;5053075;28;8831;-69
2023/08/23 03:38:03;;;;;;;;;7.75;6.00;;;;;18.42;74.51;101952.38;5060098;28;8817;-69
2023/08/23 03:40:39;;;;;;;;;8.25;8.25;;;;;18.45;74.66;101951.97;5067681;28;8815;-69
2023/08/23 03:43:06;;;;;;;;;6.00;6.00;;;;;18.44;74.77;101947.56;5068869;28;8838;-70
2023/08/23 03:45:33;;;;;;;;;5.50;4.00;;;;;18.43;74.61;101938.56;5069571;28;8827;-69
2023/08/23 03:48:01;;;;;;;;;6.75;5.75;;;;;18.42;74.66;101938.75;5055132;28;8846;-69
2023/08/23 03:50:28;;;;;;;;;5.75;5.75;;;;;18.41;74.58;101937.94;5064842;28;8873;-69
2023/08/23 03:52:54;;;;;;;;;5.25;5.25;;;;;18.40;74.82;101946.34;5066890;28;8833;-70
2023/08/23 03:55:21;;;;;;;;;8.50;6.00;;;;;18.38;74.74;101956.59;5052674;28;8842;-69
2023/08/23 03:57:47;;;;;;;;;7.75;7.75;;;;;18.35;74.69;101949.72;5060067;28;8845;-70
2023/08/23 04:00:15;;;;;;;;;8.25;7.75;;;;;18.34;74.86;101950.75;5067966;28;8839;-70
2023/08/23 04:02:43;;;;;;;;;6.50;6.50;;;;;18.33;74.92;101948.25;5065405;28;8870;-69
2023/08/23 04:05:12;;;;;;;;;8.75;6.00;;;;;18.32;74.95;101960.22;5069197;28;8954;-69
2023/08/23 04:07:39;;;;;;;;;8.75;6.75;;;;;18.31;74.98;101962.13;5048603;28;8847;-69
2023/08/23 04:10:07;;;;;;;;;8.50;8.50;;;;;18.31;75.00;101956.66;5062159;28;8838;-69
2023/08/23 04:12:34;;;;;;;;;13.00;7.50;;;;;18.28;75.08;101957.94;5069965;28;8839;-69
2023/08/23 04:15:00;;;;;;;;;10.50;9.00;;;;;18.28;75.07;101952.47;5064773;28;8830;-69
2023/08/23 04:17:28;;;;;;;;;9.25;9.25;;;;;18.27;74.98;101959.00;5072284;22;8847;31
2023/08/23 04:19:55;;;;;;;;;9.00;8.50;;;;;18.27;75.56;101953.53;5000252;28;8846;-67
2023/08/23 04:22:22;;;;;;;;;11.50;9.25;;;;;18.28;75.20;101951.66;4977484;28;8835;-68
2023/08/23 04:24:51;;;;;;;;;9.75;9.50;;;;;18.27;75.27;101956.25;4962406;28;8868;-67
2023/08/23 04:27:18;;;;;;;;;10.00;10.00;;;;;18.27;75.34;101945.38;4965202;28;8879;-67
2023/08/23 04:29:45;;;;;;;;;8.75;7.50;;;;;18.28;75.32;101952.47;4962474;28;8867;-68
2023/08/23 04:32:12;;;;;;;;;12.50;9.00;;;;;18.27;75.21;101948.09;4983243;28;8894;-68
2023/08/23 04:34:40;;;;;;;;;13.50;9.75;;;;;18.27;75.36;101950.81;4969195;28;8853;-67
2023/08/23 04:37:07;;;;;;;;;12.00;10.25;;;;;18.26;75.46;101956.47;4978965;28;8833;-68
2023/08/23 04:39:34;;;;;;;;;7.25;7.00;;;;;18.23;75.28;101949.56;4967420;28;8887;-69
2023/08/23 04:42:02;;;;;;;;;10.25;8.75;;;;;18.21;75.73;101948.13;4968038;28;8863;-68
2023/08/23 04:44:29;;;;;;;;;7.00;7.00;;;;;18.21;75.52;101950.84;4970239;28;8891;-68
2023/08/23 04:46:58;;;;;;;;;7.75;7.50;;;;;18.21;75.67;101940.78;4968545;28;8832;-68
2023/08/23 04:49:27;;;;;;;;;13.50;13.00;;;;;18.18;75.46;101943.09;4969446;28;8846;-66
2023/08/23 04:51:53;;;;;;;;;10.50;9.25;;;;;18.17;75.83;101944.97;4951879;28;8993;-67
2023/08/23 04:54:20;;;;;;;;;9.00;8.75;;;;;18.17;76.09;101939.53;4977291;28;8903;-68
2023/08/23 04:56:47;;;;;;;;;13.00;12.25;;;;;18.19;76.20;101948.34;4955603;28;8840;-67
2023/08/23 04:59:13;;;;;;;;;12.75;11.00;;;;;18.21;76.09;101950.84;4984338;28;8888;-67
2023/08/23 05:01:40;;;;;;;;;8.75;7.25;;;;;18.21;75.90;101959.84;4967507;28;8905;-67
2023/08/23 05:04:07;;;;;;;;;11.00;10.00;;;;;18.19;75.84;101956.53;4986005;28;8931;-68
2023/08/23 05:06:35;;;;;;;;;11.00;10.25;;;;;18.18;76.00;101954.81;4957740;28;8847;-68
2023/08/23 05:09:04;;;;;;;;;9.75;8.50;;;;;18.18;75.92;101957.56;4964094;28;8975;-67
2023/08/23 05:11:31;;;;;;;;;15.67;10.67;;;;;18.14;76.34;101953.59;4969556;28;8859;-68
2023/08/23 05:13:58;;;;;;;;;18.67;17.00;;;;;18.10;76.14;101949.63;4963175;28;8923;-67
2023/08/23 05:16:26;;;;;;;;;15.25;12.25;;;;;18.11;76.63;101947.72;4982156;28;9093;-67
2023/08/23 05:18:53;;;;;;;;;15.67;14.33;;;;;18.10;76.41;101960.53;4976941;28;8884;-67
2023/08/23 05:21:20;;;;;;;;;14.50;13.25;;;;;18.11;76.61;101954.03;4984128;28;9041;-68
2023/08/23 05:23:47;;;;;;;;;10.25;9.25;;;;;18.13;76.75;101954.66;4977317;28;8860;-67
2023/08/23 05:26:14;;;;;;;;;13.50;11.25;;;;;18.14;76.78;101942.69;4972602;28;8848;-67
2023/08/23 05:28:40;;;;;;;;;9.50;9.50;;;;;18.16;76.84;101956.94;4981022;28;8841;-68
2023/08/23 05:31:07;;;;;;;;;11.00;10.25;;;;;18.17;76.66;101955.06;4983190;28;8888;-67
2023/08/23 05:33:34;;;;;;;;;15.75;14.25;;;;;18.18;76.78;101949.38;4969617;28;8848;-67
2023/08/23 05:36:03;;;;;;;;;9.00;8.75;;;;;18.21;77.02;101948.94;4971370;28;8873;-68
2023/08/23 05:38:29;;;;;;;;;9.25;7.75;;;;;18.23;76.88;101955.03;4972204;28;9551;-68
2023/08/23 05:40:58;;;;;;;;;10.75;8.00;;;;;18.24;76.97;101948.50;4986905;28;9002;-66
2023/08/23 05:43:26;;;;;;;;;12.00;12.00;;;;;18.27;76.83;101956.25;4971195;28;9673;-67
2023/08/23 05:45:57;;;;;;;;;7.50;7.00;;;;;18.28;77.01;101951.66;4973653;28;8836;-66
2023/08/23 05:48:24;;;;;;;;;7.00;7.00;;;;;18.29;77.30;101948.69;4973232;28;8851;-67
2023/08/23 05:50:50;;;;;;;;;12.25;12.00;;;;;18.31;77.23;101950.34;4974335;28;8860;-66
2023/08/23 05:53:19;;;;;;;;;16.00;14.33;;;;;18.31;77.28;101951.22;4974279;28;8848;-67
2023/08/23 05:55:48;;;;;;;;;8.25;7.50;;;;;18.34;77.44;101950.75;4971615;28;8945;-67
2023/08/23 05:58:16;;;;;;;;;12.75;10.25;;;;;18.36;77.43;101956.84;4967065;28;8852;-67
2023/08/23 06:00:44;;;;;;;;;13.00;10.33;;;;;18.38;77.55;101959.34;4954858;28;8847;-66
2023/08/23 06:03:14;;;;;;;;;10.75;9.75;;;;;18.40;77.67;101959.97;4955403;28;8935;-68
2023/08/23 06:05:41;;;;;;;;;11.50;10.75;;;;;18.42;77.85;101958.69;4988305;28;8971;-66
2023/08/23 06:08:08;;;;;;;;;19.25;15.25;;;;;18.42;77.99;101971.47;4974232;28;8986;-66
2023/08/23 06:10:35;;;;;;;;;14.00;13.00;;;;;18.37;78.50;101971.31;4972418;28;8848;-67
2023/08/23 06:13:02;;;;;;;;;17.25;12.50;;;;;18.41;78.78;101975.25;4976299;28;8844;-67
2023/08/23 06:15:28;;;;;;;;;11.75;11.75;;;;;18.42;78.84;101979.66;4974067;28;8946;-68
2023/08/23 06:17:55;;;;;;;;;18.50;16.00;;;;;18.41;78.90;101984.28;4973883;28;8836;-67
2023/08/23 06:20:22;;;;;;;;;16.00;15.00;;;;;18.42;79.17;101985.09;4987966;28;8970;-67
2023/08/23 06:22:49;;;;;;;;;19.25;17.00;;;;;18.44;79.25;101981.13;4973904;28;9141;-67
2023/08/23 06:25:15;;;;;;;;;14.00;14.00;;;;;18.45;79.30;101982.78;4973178;28;8906;-68
2023/08/23 06:27:44;;;;;;;;;9.25;9.25;;;;;18.49;79.23;101988.63;4976127;28;8860;-66
2023/08/23 06:30:14;;;;;;;;;15.75;11.25;;;;;18.49;79.08;101986.75;4980156;28;8974;-67
2023/08/23 06:32:45;;;;;;;;;10.50;9.00;;;;;18.52;79.01;101988.22;4960336;28;8845;-66
2023/08/23 06:35:15;;;;;;;;;8.00;6.50;;;;;18.55;78.95;101993.19;4966945;28;8858;-68
2023/08/23 06:37:43;;;;;;;;;14.50;11.75;;;;;18.58;79.16;101994.66;4953057;28;8935;-68
2023/08/23 06:40:10;;;;;;;;;10.25;9.25;;;;;18.63;79.01;101995.66;4954313;28;8831;-67
2023/08/23 06:42:38;;;;;;;;;10.00;10.00;;;;;18.66;78.50;101992.50;4954190;28;8863;-67
2023/08/23 06:45:05;;;;;;;;;15.00;11.00;;;;;18.70;78.81;101998.38;4963050;28;8867;-67
2023/08/23 06:47:33;;;;;;;;;12.75;11.00;;;;;18.72;78.71;101991.66;4971757;28;8942;-66
2023/08/23 06:50:00;;;;;;;;;15.25;15.00;;;;;18.70;78.72;101991.03;4972959;28;8832;-67
2023/08/23 06:52:26;;;;;;;;;15.50;14.25;;;;;18.73;78.95;101993.34;4973418;28;8902;-67
2023/08/23 06:54:53;;;;;;;;;8.50;8.50;;;;;18.77;79.33;102001.91;4973440;28;8836;-66
2023/08/23 06:57:28;;;;;;;;;17.50;16.00;;;;;18.78;79.38;101998.97;4972064;28;8852;-66
2023/08/23 06:59:56;;;;;;;;;15.33;15.33;;;;;18.78;79.62;102009.88;4987960;28;9605;-67
2023/08/23 07:02:23;;;;;;;;;17.25;14.25;;;;;18.83;79.91;102009.19;4972985;28;8967;-67
2023/08/23 07:04:50;;;;;;;;;9.00;9.00;;;;;18.88;79.77;102003.94;4969798;28;8879;-67
2023/08/23 07:07:18;;;;;;;;;11.75;10.25;;;;;18.94;79.77;102002.22;4980411;28;8843;-67
2023/08/23 07:09:45;;;;;;;;;13.75;12.00;;;;;18.95;79.65;102004.72;4952223;28;8855;-67
2023/08/23 07:12:11;;;;;;;;;12.50;10.50;;;;;18.98;79.65;101993.34;4968605;28;8855;-66
2023/08/23 07:14:38;;;;;;;;;14.25;13.00;;;;;19.01;79.79;101994.81;4953568;28;8843;-67
2023/08/23 07:17:04;;;;;;;;;8.00;8.00;;;;;19.04;79.57;101999.84;4958503;28;8852;-67
2023/08/23 07:19:31;;;;;;;;;14.75;9.75;;;;;19.08;79.51;102000.19;4987708;28;8859;-67
2023/08/23 07:21:58;;;;;;;;;15.50;15.50;;;;;19.08;79.89;102002.94;4985027;28;8840;-67
2023/08/23 07:24:25;;;;;;;;;22.67;20.33;;;;;19.03;80.59;101996.25;4964196;28;8949;-67
2023/08/23 07:26:51;;;;;;;;;15.75;15.75;;;;;19.07;80.83;101990.34;4953553;28;8946;-67
2023/08/23 07:29:18;;;;;;;;;13.00;12.00;;;;;19.14;80.74;102002.88;4953346;28;8855;-67
2023/08/23 07:31:45;;;;;;;;;17.25;16.75;;;;;19.19;80.79;102003.03;4951791;28;8883;-67
2023/08/23 07:34:11;;;;;;;;;10.50;8.25;;;;;19.22;81.03;101999.03;4966596;28;8833;-67
2023/08/23 07:36:38;;;;;;;;;13.50;12.00;;;;;19.30;80.55;101997.94;4972552;28;8859;-67
2023/08/23 07:39:04;;;;;;;;;8.25;8.25;;;;;19.35;80.37;101998.91;4970568;28;8836;-68
2023/08/23 07:41:31;;;;;;;;;15.75;13.25;;;;;19.39;80.30;102007.50;4964033;28;8887;-67
2023/08/23 07:43:57;;;;;;;;;11.50;10.00;;;;;19.43;80.07;102006.81;4972028;28;8876;-67
2023/08/23 07:46:24;;;;;;;;;14.25;12.75;;;;;19.47;79.96;101999.00;4972069;28;9622;-67
2023/08/23 07:48:51;;;;;;;;;13.25;13.25;;;;;19.51;79.93;102005.69;4987077;28;8836;-67
2023/08/23 07:51:17;;;;;;;;;7.00;7.00;;;;;19.57;79.66;102010.28;4972058;28;8848;-67
2023/08/23 07:53:44;;;;;;;;;13.75;12.25;;;;;19.58;79.55;102006.47;4969882;28;8829;-67
2023/08/23 07:56:13;;;;;;;;;6.50;6.00;;;;;19.60;79.61;102008.97;4971452;28;9535;-67
2023/08/23 07:58:41;;;;;;;;;13.50;12.00;;;;;19.62;79.56;102013.19;4963501;28;8848;-67
2023/08/23 08:01:08;;;;;;;;;20.25;18.50;;;;;19.61;79.76;102011.53;4970757;28;8824;-67
2023/08/23 08:03:34;;;;;;;;;18.25;18.25;;;;;19.60;80.02;102015.25;4972334;28;8958;-67
2023/08/23 08:06:01;;;;;;;;;19.00;16.25;;;;;19.60;80.03;102019.88;4972017;28;8848;-67
2023/08/23 08:08:29;;;;;;;;;20.00;16.25;;;;;19.61;79.98;102016.97;4970730;28;8864;-67
2023/08/23 08:10:56;;;;;;;;;11.50;10.75;;;;;19.66;80.08;102024.50;4969148;28;9646;-67
2023/08/23 08:13:23;;;;;;;;;19.00;18.00;;;;;19.69;79.86;102018.59;4963638;28;8862;-67
2023/08/23 08:15:49;;;;;;;;;14.50;13.00;;;;;19.75;79.83;102028.59;4957519;28;9358;-67
2023/08/23 08:18:16;;;;;;;;;16.00;15.00;;;;;19.79;79.60;102031.72;4971227;28;8879;-67
2023/08/23 08:20:46;;;;;;;;;17.25;16.00;;;;;19.80;79.51;102038.84;4971055;28;8873;-67
2023/08/23 08:23:13;;;;;;;;;27.67;23.00;;;;;19.72;79.77;102042.69;4972120;28;8859;-67
2023/08/23 08:25:39;;;;;;;;;22.00;18.50;;;;;19.70;79.79;102045.66;4970232;28;8937;-67
2023/08/23 08:28:06;;;;;;;;;24.00;18.50;;;;;19.70;79.66;102048.41;4984244;28;9579;-67
2023/08/23 08:30:32;;;;;;;;;18.75;16.25;;;;;19.67;79.83;102046.13;4970629;28;8836;-67
2023/08/23 08:32:59;;;;;;;;;22.00;19.75;;;;;19.66;79.62;102043.63;4971837;28;8856;-67
2023/08/23 08:35:25;;;;;;;;;20.75;20.00;;;;;19.66;79.84;102043.63;4971556;28;8930;-67
2023/08/23 08:37:52;;;;;;;;;19.25;19.25;;;;;19.63;80.18;102036.69;4971215;28;8840;-66
2023/08/23 08:40:21;;;;;;;;;22.50;20.50;;;;;19.73;80.25;102037.03;4969132;28;8820;-67
2023/08/23 08:42:49;;;;;;;;;20.75;18.25;;;;;19.85;80.12;102036.25;4963479;28;8983;-67
2023/08/23 08:45:15;;;;;;;;;20.00;17.75;;;;;19.94;79.87;102027.56;4971454;28;8836;-67
2023/08/23 08:47:42;;;;;;;;;15.00;14.00;;;;;20.04;79.32;102032.47;4971397;28;8856;-68
2023/08/23 08:50:09;;;;;;;;;14.25;12.25;;;;;20.15;79.01;102034.44;4970900;28;8852;-67
2023/08/23 08:52:41;;;;;;;;;15.75;14.00;;;;;20.25;78.38;102040.22;4971038;28;8852;-68
2023/08/23 08:55:10;;;;;;;;;14.25;13.75;;;;;20.32;78.12;102044.75;4969107;28;8840;-66
2023/08/23 08:57:38;;;;;;;;;18.50;15.75;;;;;20.39;77.87;102040.88;4962901;28;9543;-67
2023/08/23 09:00:05;;;;;;;;;25.50;19.00;;;;;20.38;77.57;102043.84;4971074;28;8824;-67
2023/08/23 09:02:32;;;;;;;;;12.50;12.25;;;;;20.36;77.58;102035.84;4969707;28;9674;-67
2023/08/23 09:05:00;;;;;;;;;12.75;11.25;;;;;20.44;77.32;102042.91;4965786;28;8836;-67
2023/08/23 09:07:26;;;;;;;;;10.50;10.50;;;;;20.47;77.14;102037.00;4967459;28;8848;-67
2023/08/23 09:09:53;;;;;;;;;16.75;12.50;;;;;20.52;76.97;102039.06;4970728;28;8844;-67
2023/08/23 09:12:19;;;;;;;;;28.75;24.00;;;;;20.45;76.76;102039.94;4971187;28;8856;-67
2023/08/23 09:14:49;;;;;;;;;21.00;19.50;;;;;20.38;76.65;102044.69;4985816;28;8922;-67
2023/08/23 09:17:22;;;;;;;;;23.50;20.50;;;;;20.34;77.06;102042.66;4969641;28;8910;-68
2023/08/23 09:19:49;;;;;;;;;15.50;14.75;;;;;20.39;77.12;102040.03;4977155;28;8895;-68
2023/08/23 09:22:22;;;;;;;;;16.00;14.25;;;;;20.45;76.89;102042.69;4962971;28;8858;-67
2023/08/23 09:24:48;;;;;;;;;22.50;18.00;;;;;20.46;76.90;102040.81;4970903;28;8832;-68
2023/08/23 09:27:16;;;;;;;;;14.25;14.25;;;;;20.49;76.83;102037.59;4986074;28;8844;-67
2023/08/23 09:30:03;;;;;;;;;18.75;18.25;;;;;20.49;76.76;102037.59;4969156;28;8936;-67
2023/08/23 09:32:30;;;;;;;;;17.25;16.25;;;;;20.53;76.74;102032.53;4971050;28;9618;-68
2023/08/23 09:34:57;;;;;;;;;17.75;16.50;;;;;20.57;76.40;102039.19;4968752;28;8867;-68
2023/08/23 09:37:26;;;;;;;;;19.25;16.25;;;;;20.58;76.08;102040.84;4962798;28;8828;-68
2023/08/23 09:39:53;;;;;;;;;28.50;25.00;;;;;20.54;76.00;102037.78;4970116;28;8820;-67
2023/08/23 09:42:20;;;;;;;;;19.75;18.75;;;;;20.47;76.40;102037.00;4969400;28;8864;-67
2023/08/23 09:44:50;;;;;;;;;12.50;12.50;;;;;20.58;75.95;102038.97;4970655;28;8934;-67
2023/08/23 09:47:21;;;;;;;;;21.75;21.25;;;;;20.63;75.81;102030.06;4970669;28;8871;-67
2023/08/23 09:49:48;;;;;;;;;17.75;16.50;;;;;20.68;75.91;102032.94;4985406;28;8841;-67
2023/08/23 09:52:15;;;;;;;;;21.75;20.25;;;;;20.66;75.92;102029.59;4968620;28;8966;-68
2023/08/23 09:54:47;;;;;;;;;20.25;17.75;;;;;20.79;75.83;102034.06;4962645;28;8925;-67
2023/08/23 09:57:31;;;;;;;;;9.25;9.25;;;;;20.90;75.41;102025.88;4970571;28;8832;-68
2023/08/23 09:59:59;;;;;;;;;19.00;16.00;;;;;21.02;75.29;102017.66;4970538;28;8987;-67
2023/08/23 10:02:27;;;;;;;;;15.50;14.75;;;;;21.10;74.75;102017.31;4969382;28;8874;-67
2023/08/23 10:04:54;;;;;;;;;22.25;20.75;;;;;21.13;74.96;102016.84;4964987;28;8974;-68
2023/08/23 10:07:21;;;;;;;;;15.00;13.25;;;;;21.16;73.97;102021.88;4967445;28;8844;-67
2023/08/23 10:09:49;;;;;;;;;17.50;17.50;;;;;21.16;73.83;102019.13;4973611;28;8855;-68
2023/08/23 10:12:17;;;;;;;;;26.00;21.75;;;;;21.10;73.76;102020.06;4988916;28;8849;-67
2023/08/23 10:14:48;;;;;;;;;24.75;19.25;;;;;21.09;73.63;102015.66;4988334;28;8919;-67
2023/08/23 10:17:18;;;;;;;;;23.00;21.00;;;;;21.13;73.73;102005.91;4972706;28;8832;-68
2023/08/23 10:19:49;;;;;;;;;31.25;26.50;;;;;21.10;73.76;102011.00;4970242;28;8851;-68
2023/08/23 10:22:19;;;;;;;;;18.75;18.50;;;;;21.19;73.27;102010.44;4971329;28;8856;-68
2023/08/23 10:24:49;;;;;;;;;22.25;21.50;;;;;21.28;72.69;102012.84;4973578;28;8848;-68
2023/08/23 10:27:17;;;;;;;;;18.25;18.00;;;;;21.41;72.78;102007.97;4973652;28;8856;-68
2023/08/23 10:29:49;;;;;;;;;18.75;17.25;;;;;21.51;72.47;101999.16;4973530;28;8962;-68
2023/08/23 10:32:16;;;;;;;;;24.50;21.50;;;;;21.56;72.13;101996.56;4971103;28;9579;-68
2023/08/23 10:34:43;;;;;;;;;17.25;17.00;;;;;21.72;71.62;101997.72;4982285;28;8836;-68
2023/08/23 10:37:17;;;;;;;;;19.75;16.75;;;;;21.86;71.62;101999.13;4973299;28;9640;-68
2023/08/23 10:39:54;;;;;;;;;26.50;20.25;;;;;21.93;71.59;102001.75;4973180;28;8855;-68
2023/08/23 10:42:21;;;;;;;;;21.50;20.00;;;;;21.86;70.86;101996.38;4973196;28;8836;-68
2023/08/23 10:44:59;;;;;;;;;16.00;15.75;;;;;21.95;70.46;101994.09;4973698;28;8832;-68
2023/08/23 10:47:26;;;;;;;;;17.25;16.25;;;;;22.02;70.47;101999.44;4972933;28;8982;-68
2023/08/23 10:49:54;;;;;;;;;24.50;17.50;;;;;22.04;69.89;101998.13;4985459;28;8848;-68
2023/08/23 10:52:21;;;;;;;;;19.75;16.25;;;;;22.05;69.60;101985.25;4965267;28;8863;-69
2023/08/23 10:54:48;;;;;;;;;18.25;17.75;;;;;21.89;68.51;101995.06;4968696;28;8836;-68
2023/08/23 10:57:17;;;;;;;;;18.00;16.50;;;;;21.86;68.72;101990.06;4973320;28;8852;-68
2023/08/23 10:59:44;;;;;;;;;14.25;13.50;;;;;21.92;68.72;101994.59;4972706;28;8848;-68
2023/08/23 11:02:11;;;;;;;;;13.50;12.00;;;;;21.98;68.30;101983.47;4973231;28;8832;-68
2023/08/23 11:04:38;;;;;;;;;12.00;10.75;;;;;22.04;67.47;101984.44;4973288;28;8847;-68
2023/08/23 11:07:06;;;;;;;;;10.00;10.00;;;;;22.08;67.00;101977.38;4970222;28;8914;-68
2023/08/23 11:09:33;;;;;;;;;9.25;8.75;;;;;22.16;66.64;101979.78;4970406;28;8860;-68
2023/08/23 11:12:00;;;;;;;;;8.25;6.75;;;;;22.20;66.66;101980.94;4967401;28;8846;-68
2023/08/23 11:14:26;;;;;;;;;9.25;7.50;;;;;22.27;66.52;101988.19;4972926;28;8848;-68
2023/08/23 11:16:53;;;;;;;;;9.75;9.00;;;;;22.26;65.82;101989.28;4972989;28;9571;-68
2023/08/23 11:19:19;;;;;;;;;9.25;9.25;;;;;22.21;65.43;101990.00;4972654;28;8926;-68
2023/08/23 11:21:46;;;;;;;;;8.50;8.50;;;;;22.18;64.79;101983.09;4972181;28;8927;-68
2023/08/23 11:24:13;;;;;;;;;7.50;7.50;;;;;22.16;64.80;101982.50;4971998;28;8880;-68
2023/08/23 11:26:40;;;;;;;;;11.50;10.50;;;;;22.20;63.79;101980.09;4969753;28;9433;-68